Time;durP1;ratioP1;P1;durP2;ratioP2;P2;SDS_P1;SDS_P2;PMS_P1;PMS_P2;Temp;Humidity;BMP_temperature;BMP_pressure;BME280_temperature;BME280_humidity;BME280_pressure;Samples;Min_cycle;Max_cycle;Signal;HPM_P1;HPM_P2
2022/05/03 00:01:17;;;;;;;11.02;6.43;;;;;;;15.90;65.90;101621.47;7388554;19;20015;-66
2022/05/03 00:03:54;;;;;;;10.75;6.38;;;;;;;15.88;65.77;101620.00;7390748;19;20014;-65
2022/05/03 00:06:33;;;;;;;11.30;5.97;;;;;;;15.85;65.94;101617.69;7388669;19;20365;-65
2022/05/03 00:09:05;;;;;;;11.45;6.50;;;;;;;15.88;65.41;101620.00;7390358;19;20131;-64
2022/05/03 00:11:34;;;;;;;10.13;6.27;;;;;;;15.87;65.25;101615.69;7388833;19;20123;-64
2022/05/03 00:14:10;;;;;;;11.43;6.82;;;;;;;15.88;65.21;101617.34;7385938;19;20015;-64
2022/05/03 00:16:38;;;;;;;12.05;6.60;;;;;;;15.86;65.47;101620.16;7390171;19;20091;-64
2022/05/03 00:19:06;;;;;;;11.45;6.60;;;;;;;15.79;65.66;101612.06;7386698;19;20029;-65
2022/05/03 00:21:35;;;;;;;10.63;5.88;;;;;;;15.78;65.75;101610.41;7390377;19;20014;-63
2022/05/03 00:24:04;;;;;;;10.02;6.18;;;;;;;15.77;65.71;101614.03;7389682;19;20082;-64
2022/05/03 00:26:33;;;;;;;11.38;5.95;;;;;;;15.75;65.86;101616.03;7385670;19;20501;-65
2022/05/03 00:29:01;;;;;;;11.73;6.47;;;;;;;15.73;66.19;101623.34;7386243;19;20089;-65
2022/05/03 00:31:34;;;;;;;9.63;6.00;;;;;;;15.71;66.33;101622.66;7388772;19;20018;-66
2022/05/03 00:34:03;;;;;;;9.40;5.50;;;;;;;15.67;66.47;101617.88;7383872;19;20024;-65
2022/05/03 00:36:31;;;;;;;12.68;5.82;;;;;;;15.64;66.81;101619.03;7390547;19;20086;-63
2022/05/03 00:38:58;;;;;;;9.35;5.90;;;;;;;15.56;66.96;101613.72;7389531;19;20023;-63
2022/05/03 00:41:29;;;;;;;10.27;6.13;;;;;;;15.50;67.13;101613.50;7385839;19;20017;-66
2022/05/03 00:44:55;;;;;;;11.52;5.80;;;;;;;15.46;67.37;101615.66;7383294;19;20026;-64
2022/05/03 00:47:06;;;;;;;12.93;6.38;;;;;;;15.41;67.51;101621.47;7385820;19;20010;-65
2022/05/03 00:49:44;;;;;;;8.95;5.72;;;;;;;15.39;67.86;101617.31;7387775;19;20034;-64
2022/05/03 00:52:25;;;;;;;11.40;6.47;;;;;;;15.37;68.11;101621.97;7386108;19;20424;-64
2022/05/03 00:54:57;;;;;;;9.85;6.32;;;;;;;15.39;67.71;101617.31;7384286;19;20630;-65
2022/05/03 00:57:37;;;;;;;15.48;6.50;;;;;;;15.37;67.74;101621.97;7387748;19;20027;-63
2022/05/03 01:00:07;;;;;;;13.20;6.25;;;;;;;15.33;67.89;101616.16;7384597;19;20020;-63
2022/05/03 01:02:39;;;;;;;10.73;6.97;;;;;;;15.30;68.31;101621.78;7385515;19;20018;-64
2022/05/03 01:05:10;;;;;;;10.63;6.43;;;;;;;15.27;69.20;101627.44;7387089;19;20029;-64
2022/05/03 01:07:55;;;;;;;11.35;6.80;;;;;;;15.28;68.47;101621.13;7385538;19;20108;-64
2022/05/03 01:10:29;;;;;;;13.57;7.07;;;;;;;15.18;68.59;101627.56;7387831;19;20058;-63
2022/05/03 01:13:03;;;;;;;9.93;5.88;;;;;;;15.11;68.94;101630.03;7387302;19;20035;-65
2022/05/03 01:15:33;;;;;;;12.63;7.55;;;;;;;15.05;69.34;101619.25;7390918;19;20040;-63
2022/05/03 01:18:07;;;;;;;12.23;7.43;;;;;;;15.02;69.82;101624.88;7386299;19;20006;-65
2022/05/03 01:20:38;;;;;;;12.13;6.60;;;;;;;14.99;69.95;101618.91;7388361;19;20015;-65
2022/05/03 01:23:22;;;;;;;9.90;6.20;;;;;;;14.99;69.97;101618.91;7387828;19;20508;-65
2022/05/03 01:25:53;;;;;;;14.80;6.70;;;;;;;15.01;69.71;101617.91;7383813;19;21038;-65
2022/05/03 01:28:27;;;;;;;12.70;7.00;;;;;;;14.99;69.81;101615.44;7388350;19;20031;-65
2022/05/03 01:30:57;;;;;;;14.07;7.00;;;;;;;15.03;69.59;101618.59;7385009;19;20037;-65
2022/05/03 01:33:31;;;;;;;12.07;7.65;;;;;;;15.03;69.48;101624.75;7383693;19;20006;-64
2022/05/03 01:36:00;;;;;;;11.00;6.65;;;;;;;14.99;69.36;101620.72;7381416;19;20421;-64
2022/05/03 01:38:29;;;;;;;12.25;7.13;;;;;;;14.97;69.45;101618.25;7384085;19;20308;-65
2022/05/03 01:40:58;;;;;;;12.35;7.20;;;;;;;14.94;69.70;101623.88;7383459;19;20074;-64
2022/05/03 01:43:32;;;;;;;11.10;6.85;;;;;;;14.92;69.94;101625.88;7387459;19;20127;-64
2022/05/03 01:46:06;;;;;;;11.80;6.50;;;;;;;14.90;70.15;101621.69;7385153;19;20142;-65
2022/05/03 01:51:22;;;;;;;14.23;7.35;;;;;;;14.85;69.74;101624.84;7385966;19;20028;-65
2022/05/03 01:54:02;;;;;;;11.65;7.55;;;;;;;14.80;69.95;101618.34;7386360;19;20019;-64
2022/05/03 01:56:35;;;;;;;12.52;6.57;;;;;;;14.76;70.28;101633.75;7383991;19;20182;-65
2022/05/03 01:59:05;;;;;;;11.18;6.45;;;;;;;14.73;70.09;101626.09;7386859;19;20026;-64
2022/05/03 02:01:39;;;;;;;12.23;7.57;;;;;;;14.75;69.90;101626.78;7385139;19;20344;-64
2022/05/03 02:04:09;;;;;;;12.70;6.60;;;;;;;14.73;69.77;101625.31;7387229;19;20022;-64
2022/05/03 02:06:41;;;;;;;9.48;6.00;;;;;;;14.71;69.64;101628.09;7388198;19;20018;-69
2022/05/03 02:09:10;;;;;;;11.60;6.95;;;;;;;14.60;69.48;101628.38;7383859;19;20011;-64
2022/05/03 02:11:41;;;;;;;15.68;6.60;;;;;;;14.55;69.30;101622.72;7387064;19;20383;-63
2022/05/03 02:16:50;;;;;;;12.55;6.47;;;;;;;14.43;69.84;101624.81;7385005;19;20569;-63
2022/05/03 02:19:29;;;;;;;14.13;6.30;;;;;;;14.38;70.11;101623.63;7386568;19;20014;-64
2022/05/03 02:22:04;;;;;;;12.80;6.90;;;;;;;14.34;70.25;101625.75;7382544;19;20393;-64
2022/05/03 02:24:39;;;;;;;11.55;7.25;;;;;;;14.31;70.58;101630.53;7385824;19;20074;-63
2022/05/03 02:27:10;;;;;;;15.18;7.75;;;;;;;14.25;70.75;101626.69;7387702;19;20016;-64
2022/05/03 02:29:41;;;;;;;14.45;7.32;;;;;;;14.24;70.97;101629.47;7384950;19;20102;-64
2022/05/03 02:32:11;;;;;;;13.43;6.95;;;;;;;14.19;70.91;101624.66;7386353;19;20325;-64
2022/05/03 02:34:46;;;;;;;13.98;7.68;;;;;;;14.15;71.35;101620.69;7381843;19;20006;-64
2022/05/03 02:37:14;;;;;;;13.90;7.97;;;;;;;14.10;71.61;101625.59;7385124;19;20328;-64
2022/05/03 02:39:52;;;;;;;16.67;8.27;;;;;;;14.06;71.79;101616.31;7383371;19;20077;-65
2022/05/03 02:42:22;;;;;;;16.75;7.65;;;;;;;14.05;72.75;101618.13;7383180;19;20017;-64
2022/05/03 02:44:52;;;;;;;15.40;8.60;;;;;;;14.08;72.07;101617.81;7386700;19;20190;-65
2022/05/03 02:47:25;;;;;;;14.40;7.75;;;;;;;14.09;72.08;101619.47;7386759;19;20086;-64
2022/05/03 02:50:08;;;;;;;12.38;7.78;;;;;;;14.11;72.15;101624.63;7384186;19;20010;-64
2022/05/03 02:52:50;;;;;;;14.45;7.53;;;;;;;14.12;72.20;101620.97;7382800;19;20442;-66
2022/05/03 02:55:22;;;;;;;16.88;9.00;;;;;;;14.12;72.44;101613.03;7381135;19;20114;-64
2022/05/03 02:57:59;;;;;;;17.13;9.40;;;;;;;14.10;72.67;101612.38;7385537;19;20787;-64
2022/05/03 03:03:07;;;;;;;16.52;8.75;;;;;;;14.09;72.59;101614.19;7382113;19;20110;-65
2022/05/03 03:05:41;;;;;;;16.77;8.82;;;;;;;14.06;72.90;101619.81;7383623;19;20014;-64
2022/05/03 03:08:12;;;;;;;16.27;8.90;;;;;;;14.06;73.11;101626.91;7381600;19;20003;-65
2022/05/03 03:10:50;;;;;;;20.85;10.73;;;;;;;14.09;74.37;101614.19;7381631;19;20015;-65
2022/05/03 03:13:24;;;;;;;18.77;9.27;;;;;;;14.08;74.13;101628.41;7386189;19;20516;-63
2022/05/03 03:15:54;;;;;;;20.30;9.65;;;;;;;14.09;74.02;101626.59;7383171;19;20017;-65
2022/05/03 03:18:24;;;;;;;19.25;9.65;;;;;;;14.05;74.29;101628.72;7384546;19;20305;-65
2022/05/03 03:20:56;;;;;;;21.33;10.88;;;;;;;14.03;74.50;101628.03;7383930;19;20424;-63
2022/05/03 03:23:26;;;;;;;22.98;11.32;;;;;;;13.99;75.33;101637.28;7383095;19;20021;-63
2022/05/03 03:25:53;;;;;;;22.33;10.70;;;;;;;14.01;75.66;101645.06;7380056;19;19999;-63
2022/05/03 03:28:22;;;;;;;22.88;11.50;;;;;;;14.01;75.17;101640.63;7393135;19;20017;-64
2022/05/03 03:30:52;;;;;;;21.17;10.40;;;;;;;13.97;75.43;101639.22;7388535;19;20015;-64
2022/05/03 03:33:20;;;;;;;22.13;11.18;;;;;;;13.97;75.30;101633.09;7388603;19;20094;-65
2022/05/03 03:35:49;;;;;;;20.88;11.18;;;;;;;13.97;75.53;101639.22;7386393;19;20038;-65
2022/05/03 03:38:17;;;;;;;23.80;12.70;;;;;;;13.97;75.84;101635.75;7390274;19;20078;-64
2022/05/03 03:40:46;;;;;;;22.85;11.77;;;;;;;13.96;75.54;101634.94;7387884;19;20492;-64
2022/05/03 03:43:15;;;;;;;22.25;11.13;;;;;;;13.94;76.00;101634.25;7389635;19;20093;-64
2022/05/03 03:45:42;;;;;;;27.02;11.95;;;;;;;13.91;76.30;101639.03;7390381;19;20017;-64
2022/05/03 03:48:10;;;;;;;26.15;12.50;;;;;;;13.86;76.74;101631.56;7388690;19;20248;-64
2022/05/03 03:50:42;;;;;;;24.25;12.18;;;;;;;13.86;76.67;101636.03;7390467;19;20019;-64
2022/05/03 03:53:10;;;;;;;28.33;13.98;;;;;;;13.85;77.12;101639.66;7392642;19;20078;-66
2022/05/03 03:55:37;;;;;;;26.10;12.73;;;;;;;13.82;77.39;101640.78;7386364;19;20084;-64
2022/05/03 03:58:05;;;;;;;28.75;13.48;;;;;;;13.74;78.39;101630.16;7391984;19;20046;-64
2022/05/03 04:00:32;;;;;;;26.52;13.00;;;;;;;13.66;78.74;101628.25;7389170;19;20087;-64
2022/05/03 04:03:01;;;;;;;27.67;13.35;;;;;;;13.63;78.97;101631.22;7389828;19;20634;-65
2022/05/03 04:05:29;;;;;;;28.05;13.52;;;;;;;13.61;79.44;101622.59;7389861;19;20015;-65
2022/05/03 04:07:56;;;;;;;32.58;13.75;;;;;;;13.54;80.04;101626.84;7389700;19;20503;-65
2022/05/03 04:10:23;;;;;;;29.75;13.48;;;;;;;13.50;80.36;101625.50;7389483;19;20073;-66
2022/05/03 04:12:51;;;;;;;27.17;13.27;;;;;;;13.48;80.56;101621.31;7387873;19;20031;-65
2022/05/03 04:15:18;;;;;;;30.80;13.82;;;;;;;13.43;80.91;101632.34;7388095;19;20030;-65
2022/05/03 04:17:45;;;;;;;35.38;15.63;;;;;;;13.42;81.13;101635.13;7388172;19;20006;-64
2022/05/03 04:20:15;;;;;;;26.85;12.95;;;;;;;13.44;81.37;101633.19;7390965;19;20015;-64
2022/05/03 04:22:42;;;;;;;30.38;13.75;;;;;;;13.42;81.41;101628.03;7388600;19;20046;-64
2022/05/03 04:25:09;;;;;;;30.80;14.57;;;;;;;13.45;81.36;101626.94;7390005;19;20028;-64
2022/05/03 04:27:37;;;;;;;32.15;14.10;;;;;;;13.45;81.53;101627.75;7388776;19;20010;-64
2022/05/03 04:30:05;;;;;;;37.00;14.93;;;;;;;13.48;81.76;101640.66;7386581;19;20027;-64
2022/05/03 04:32:34;;;;;;;31.67;14.02;;;;;;;13.51;81.56;101635.06;7387000;19;20017;-64
2022/05/03 04:35:01;;;;;;;37.03;15.93;;;;;;;13.47;81.86;101641.63;7385747;19;20432;-65
2022/05/03 04:37:28;;;;;;;36.50;15.15;;;;;;;13.46;81.83;101634.69;7386035;19;20398;-64
2022/05/03 04:39:56;;;;;;;35.42;14.65;;;;;;;13.46;82.04;101636.53;7388085;19;20166;-64
2022/05/03 04:42:23;;;;;;;34.25;14.10;;;;;;;13.47;82.31;101638.16;7386822;19;20018;-64
2022/05/03 04:44:50;;;;;;;35.58;15.00;;;;;;;13.46;81.78;101639.19;7388814;19;20014;-66
2022/05/03 04:47:17;;;;;;;33.92;14.45;;;;;;;13.44;82.47;101643.75;7386401;19;20085;-63
2022/05/03 04:49:44;;;;;;;34.40;14.25;;;;;;;13.44;82.48;101639.31;7389196;19;20517;-64
2022/05/03 04:52:11;;;;;;;36.33;15.80;;;;;;;13.50;82.26;101645.81;7387458;19;20013;-64
2022/05/03 04:54:38;;;;;;;33.78;14.95;;;;;;;13.52;82.17;101642.03;7385785;19;20014;-65
2022/05/03 04:57:07;;;;;;;35.85;14.32;;;;;;;13.54;81.90;101639.22;7385912;19;20044;-64
2022/05/03 04:59:40;;;;;;;35.20;13.98;;;;;;;13.53;82.02;101637.56;7389205;19;20022;-64
2022/05/03 05:02:09;;;;;;;34.17;13.77;;;;;;;13.53;82.29;101638.41;7387699;19;20167;-65
2022/05/03 05:04:36;;;;;;;39.55;15.07;;;;;;;13.55;82.19;101644.38;7385570;19;20034;-64
2022/05/03 05:07:03;;;;;;;38.80;15.43;;;;;;;13.54;82.35;101637.41;7387043;19;20017;-64
2022/05/03 05:09:30;;;;;;;35.72;15.38;;;;;;;13.56;82.23;101639.94;7384521;19;20475;-64
2022/05/03 05:11:58;;;;;;;34.67;14.50;;;;;;;13.57;82.42;101652.13;7385796;19;20011;-65
2022/05/03 05:14:25;;;;;;;36.22;14.73;;;;;;;13.53;82.32;101646.31;7387134;19;20047;-63
2022/05/03 05:16:52;;;;;;;32.95;14.73;;;;;;;13.53;82.58;101659.56;7385153;19;20021;-64
2022/05/03 05:19:19;;;;;;;39.15;16.60;;;;;;;13.49;82.66;101660.00;7387909;19;20477;-64
2022/05/03 05:21:46;;;;;;;36.20;14.20;;;;;;;13.49;83.15;101660.00;7383851;19;20530;-63
2022/05/03 05:24:14;;;;;;;33.10;14.93;;;;;;;13.50;83.30;101666.97;7389241;19;20346;-64
2022/05/03 05:26:41;;;;;;;35.83;15.23;;;;;;;13.52;82.83;101665.81;7384303;19;20178;-64
2022/05/03 05:29:09;;;;;;;36.70;14.60;;;;;;;13.53;82.83;101678.06;7386198;19;20050;-66
2022/05/03 05:31:37;;;;;;;35.42;13.35;;;;;;;13.54;82.77;101676.25;7385560;19;20026;-64
2022/05/03 05:34:04;;;;;;;32.53;13.00;;;;;;;13.54;82.99;101678.91;7385718;19;20051;-65
2022/05/03 05:36:34;;;;;;;33.67;13.82;;;;;;;13.53;82.99;101674.59;7388022;19;20019;-64
2022/05/03 05:39:04;;;;;;;31.05;12.60;;;;;;;13.49;83.31;101681.16;7387467;19;20251;-64
2022/05/03 05:41:36;;;;;;;30.60;12.35;;;;;;;13.46;83.56;101684.13;7383129;19;20033;-64
2022/05/03 05:44:04;;;;;;;28.30;12.15;;;;;;;13.46;83.03;101677.00;7384741;19;20186;-64
2022/05/03 05:46:31;;;;;;;26.55;11.77;;;;;;;13.37;83.43;101683.19;7387446;19;20015;-64
2022/05/03 05:48:59;;;;;;;30.98;12.77;;;;;;;13.35;83.99;101689.63;7385358;19;20014;-65
2022/05/03 05:51:26;;;;;;;24.42;11.00;;;;;;;13.28;84.30;101682.28;7387112;19;20163;-64
2022/05/03 05:53:53;;;;;;;23.45;10.45;;;;;;;13.19;84.47;101691.09;7382795;19;20349;-63
2022/05/03 05:56:21;;;;;;;23.67;11.43;;;;;;;13.13;85.01;101694.34;7385291;19;20018;-64
2022/05/03 05:58:48;;;;;;;23.77;10.52;;;;;;;13.10;84.92;101686.69;7387178;19;20042;-64
2022/05/03 06:01:15;;;;;;;21.48;10.48;;;;;;;13.11;84.70;101692.78;7384769;19;20329;-64
2022/05/03 06:03:43;;;;;;;20.67;10.48;;;;;;;13.12;84.63;101694.47;7383497;19;20184;-65
2022/05/03 06:06:10;;;;;;;21.27;10.07;;;;;;;13.12;84.73;101697.94;7383817;19;20486;-64
2022/05/03 06:08:38;;;;;;;21.63;9.75;;;;;;;13.10;84.79;101699.88;7382625;19;20337;-65
2022/05/03 06:11:05;;;;;;;20.27;10.25;;;;;;;13.12;84.90;101702.41;7383713;19;20015;-64
2022/05/03 06:13:32;;;;;;;22.92;10.70;;;;;;;13.12;84.48;101700.59;7386129;19;20013;-64
2022/05/03 06:16:08;;;;;;;22.90;10.65;;;;;;;13.13;84.45;101699.63;7381520;19;20061;-65
2022/05/03 06:18:36;;;;;;;22.63;10.75;;;;;;;13.09;84.85;101694.75;7385810;19;20030;-64
2022/05/03 06:21:07;;;;;;;23.33;10.95;;;;;;;13.08;84.51;101698.34;7386744;19;20074;-63
2022/05/03 06:23:35;;;;;;;22.67;10.88;;;;;;;13.06;85.23;101701.13;7385422;19;20018;-63
2022/05/03 06:26:05;;;;;;;22.20;10.25;;;;;;;13.11;84.90;101709.50;7386023;19;20014;-64
2022/05/03 06:28:42;;;;;;;24.05;11.15;;;;;;;13.15;84.98;101708.25;7383711;19;20044;-66
2022/05/03 06:31:10;;;;;;;26.63;12.05;;;;;;;13.18;84.59;101702.66;7384251;19;20015;-63
2022/05/03 06:33:37;;;;;;;29.10;12.32;;;;;;;13.19;84.04;101706.13;7385717;19;20022;-63
2022/05/03 06:36:10;;;;;;;25.85;11.63;;;;;;;13.19;84.48;101706.13;7386128;19;20710;-64
2022/05/03 06:38:38;;;;;;;24.63;11.05;;;;;;;13.19;84.50;101704.31;7387437;19;20436;-65
2022/05/03 06:41:05;;;;;;;26.75;10.82;;;;;;;13.22;84.60;101714.56;7385174;19;20007;-65
2022/05/03 06:43:32;;;;;;;27.77;12.10;;;;;;;13.27;84.26;101719.41;7385098;19;20023;-63
2022/05/03 06:46:00;;;;;;;25.50;11.90;;;;;;;13.28;84.34;101721.94;7384552;19;20326;-63
2022/05/03 06:48:27;;;;;;;28.98;11.48;;;;;;;13.33;84.55;101723.28;7380347;19;20015;-63
2022/05/03 06:50:55;;;;;;;29.88;13.00;;;;;;;13.31;83.64;101714.69;7384822;19;20055;-66
2022/05/03 06:53:22;;;;;;;26.00;12.38;;;;;;;13.19;84.24;101725.47;7378075;19;20135;-64
2022/05/03 06:55:49;;;;;;;29.35;13.75;;;;;;;13.23;85.90;101724.19;7383277;19;20319;-65
2022/05/03 06:58:17;;;;;;;27.58;13.07;;;;;;;13.32;87.48;101726.91;7381213;19;20086;-64
2022/05/03 07:00:44;;;;;;;25.05;11.55;;;;;;;13.31;84.92;101728.72;7379455;19;20234;-63
2022/05/03 07:03:12;;;;;;;30.27;13.15;;;;;;;13.35;84.72;101718.69;7391554;19;20047;-64
2022/05/03 07:05:40;;;;;;;29.88;13.35;;;;;;;13.35;84.28;101729.25;7383064;19;20069;-64
2022/05/03 07:08:08;;;;;;;29.52;13.57;;;;;;;13.19;84.83;101729.91;7389584;19;20393;-63
2022/05/03 07:10:36;;;;;;;29.25;13.15;;;;;;;13.16;85.21;101727.53;7380328;19;20062;-65
2022/05/03 07:13:04;;;;;;;31.70;13.40;;;;;;;13.15;85.87;101726.75;7382901;19;20010;-65
2022/05/03 07:15:33;;;;;;;28.98;12.80;;;;;;;13.16;86.09;101731.03;7385727;19;20018;-64
2022/05/03 07:23:02;;;;;;;34.58;14.40;;;;;;;13.23;85.58;101732.09;7391860;19;20013;-63
2022/05/03 07:25:30;;;;;;;33.13;13.27;;;;;;;13.22;85.47;101732.25;7387910;19;20031;-63
2022/05/03 07:27:57;;;;;;;34.33;15.45;;;;;;;13.24;85.53;101727.66;7376174;19;20013;-63
2022/05/03 07:30:24;;;;;;;29.52;13.70;;;;;;;13.13;85.42;101733.13;7384574;19;20018;-65
2022/05/03 07:32:52;;;;;;;29.70;12.30;;;;;;;13.14;85.57;101734.81;7390034;19;20111;-63
2022/05/03 07:35:19;;;;;;;33.03;12.20;;;;;;;13.12;85.99;101734.09;7391009;19;20075;-64
2022/05/03 07:37:46;;;;;;;30.27;12.13;;;;;;;13.17;86.06;101737.97;7390690;19;20021;-64
2022/05/03 07:40:14;;;;;;;29.10;11.43;;;;;;;13.19;86.19;101737.84;7388986;19;20015;-64
2022/05/03 07:42:41;;;;;;;28.13;12.05;;;;;;;13.21;86.00;101738.50;7387742;19;20006;-64
2022/05/03 07:45:09;;;;;;;29.98;11.63;;;;;;;13.28;85.29;101748.34;7390178;19;20638;-64
2022/05/03 07:47:36;;;;;;;36.30;12.05;;;;;;;13.30;85.21;101737.66;7390173;19;20038;-63
2022/05/03 07:50:05;;;;;;;26.35;10.73;;;;;;;13.29;85.37;101738.63;7388802;19;20039;-63
2022/05/03 07:52:36;;;;;;;29.00;11.63;;;;;;;13.34;86.11;101736.38;7388744;19;20019;-64
2022/05/03 07:55:08;;;;;;;27.45;11.23;;;;;;;13.35;85.65;101738.03;7388368;19;20560;-64
2022/05/03 07:57:35;;;;;;;27.77;11.20;;;;;;;13.41;85.14;101737.41;7388451;19;20389;-65
2022/05/03 08:00:05;;;;;;;28.65;11.50;;;;;;;13.49;84.69;101741.97;7386989;19;20462;-65
2022/05/03 08:02:32;;;;;;;31.15;11.27;;;;;;;13.46;84.67;101739.63;7390298;19;20034;-65
2022/05/03 08:05:00;;;;;;;30.15;12.10;;;;;;;13.40;85.14;101738.41;7387228;19;20027;-64
2022/05/03 08:07:27;;;;;;;30.08;11.00;;;;;;;13.37;85.60;101740.50;7386680;19;20440;-65
2022/05/03 08:09:55;;;;;;;29.67;12.50;;;;;;;13.37;85.73;101728.13;7388864;19;20044;-65
2022/05/03 08:12:22;;;;;;;24.95;11.02;;;;;;;13.35;85.72;101730.09;7384848;19;20458;-64
2022/05/03 08:14:51;;;;;;;30.92;12.18;;;;;;;13.38;86.41;101734.25;7385143;19;20011;-64
2022/05/03 08:17:18;;;;;;;29.92;11.55;;;;;;;13.41;85.91;101739.25;7385167;19;20003;-64
2022/05/03 08:19:46;;;;;;;29.27;12.15;;;;;;;13.46;85.07;101740.44;7386815;19;20337;-64
2022/05/03 08:22:14;;;;;;;31.92;12.23;;;;;;;13.44;84.96;101744.22;7387444;19;20263;-65
2022/05/03 08:24:41;;;;;;;27.08;11.13;;;;;;;13.40;85.20;101745.50;7389345;19;20049;-64
2022/05/03 08:27:09;;;;;;;29.67;12.27;;;;;;;13.39;85.56;101749.13;7386010;19;20011;-65
2022/05/03 08:29:36;;;;;;;30.55;11.35;;;;;;;13.32;85.31;101750.69;7386141;19;20011;-65
2022/05/03 08:32:05;;;;;;;26.50;12.05;;;;;;;13.28;85.53;101748.34;7385650;19;20026;-64
2022/05/03 08:34:32;;;;;;;28.02;11.05;;;;;;;13.27;85.00;101756.41;7385479;19;20014;-63
2022/05/03 08:42:01;;;;;;;26.58;10.63;;;;;;;13.33;84.68;101762.94;7385172;19;20018;-64
2022/05/03 08:44:30;;;;;;;26.63;11.02;;;;;;;13.24;84.56;101760.22;7385297;19;20357;-64
2022/05/03 08:46:59;;;;;;;27.75;11.02;;;;;;;13.26;84.90;101762.69;7385301;19;20017;-66
2022/05/03 08:49:37;;;;;;;23.65;10.35;;;;;;;13.26;84.94;101760.03;7385343;19;20011;-65
2022/05/03 08:52:08;;;;;;;29.38;11.10;;;;;;;13.30;83.99;101763.25;7386922;19;20573;-66
2022/05/03 08:54:37;;;;;;;26.90;11.93;;;;;;;13.27;84.08;101761.72;7385445;19;20025;-63
2022/05/03 08:57:07;;;;;;;27.83;11.45;;;;;;;13.27;84.07;101761.72;7386426;19;20006;-64
2022/05/03 08:59:38;;;;;;;26.95;10.40;;;;;;;13.27;84.24;101765.19;7384922;19;20015;-65
2022/05/03 09:02:05;;;;;;;28.90;14.13;;;;;;;13.34;84.82;101769.88;7389067;19;20217;-64
2022/05/03 09:04:33;;;;;;;27.73;11.40;;;;;;;13.42;83.75;101768.16;7385974;19;20086;-64
2022/05/03 09:07:13;;;;;;;27.75;11.32;;;;;;;13.47;83.67;101767.72;7386824;19;20034;-64
2022/05/03 09:09:42;;;;;;;25.65;11.88;;;;;;;13.48;83.45;101762.28;7386067;19;20011;-64
2022/05/03 09:12:29;;;;;;;22.15;11.00;;;;;;;13.55;83.27;101773.94;7387436;19;20320;-63
2022/05/03 09:14:59;;;;;;;23.77;11.13;;;;;;;13.62;83.46;101768.88;7385645;19;20011;-66
2022/05/03 09:17:44;;;;;;;24.13;11.27;;;;;;;13.73;82.73;101779.25;7386226;19;20010;-64
2022/05/03 09:25:21;;;;;;;25.02;10.63;;;;;;;13.90;81.41;101769.66;7385421;19;20373;-64
2022/05/03 09:27:49;;;;;;;22.65;11.68;;;;;;;13.96;81.94;101780.47;7385437;19;20031;-64
2022/05/03 09:30:16;;;;;;;24.02;9.88;;;;;;;14.03;80.91;101778.03;7384588;19;20028;-64
2022/05/03 09:32:45;;;;;;;17.98;9.10;;;;;;;14.07;79.40;101774.94;7386636;19;20021;-65
2022/05/03 09:35:18;;;;;;;17.60;9.13;;;;;;;14.08;79.40;101770.47;7388483;19;20778;-65
2022/05/03 09:37:47;;;;;;;19.17;8.32;;;;;;;14.07;78.89;101767.00;7383763;19;20094;-64
2022/05/03 09:40:16;;;;;;;17.05;8.40;;;;;;;14.10;78.98;101766.72;7385323;19;20035;-67
2022/05/03 09:42:54;;;;;;;19.83;9.13;;;;;;;14.11;79.32;101768.38;7385576;19;20430;-65
2022/05/03 09:45:29;;;;;;;19.60;8.60;;;;;;;14.14;78.31;101767.22;7389505;19;20014;-65
2022/05/03 09:48:06;;;;;;;18.40;8.07;;;;;;;14.17;78.31;101766.91;7384960;19;20014;-65
2022/05/03 09:50:45;;;;;;;20.55;7.47;;;;;;;14.14;78.72;101767.22;7387278;19;20007;-64
2022/05/03 09:53:19;;;;;;;18.77;9.18;;;;;;;14.19;78.54;101767.59;7383871;19;20013;-68
2022/05/03 09:55:48;;;;;;;21.75;9.55;;;;;;;14.20;78.53;101763.16;7383821;19;20011;-64
2022/05/03 09:58:18;;;;;;;18.20;9.13;;;;;;;14.21;78.89;101770.09;7382061;19;20006;-64
2022/05/03 10:00:48;;;;;;;20.40;9.45;;;;;;;14.27;78.42;101769.50;7385310;19;20019;-64
2022/05/03 10:03:17;;;;;;;19.77;9.45;;;;;;;14.24;78.01;101770.63;7388854;19;20018;-66
2022/05/03 10:05:46;;;;;;;18.25;9.15;;;;;;;14.23;78.63;101765.47;7383994;19;20123;-65
2022/05/03 10:08:16;;;;;;;22.33;10.48;;;;;;;14.23;78.44;101765.47;7384765;19;20639;-65
2022/05/03 10:10:56;;;;;;;21.40;9.07;;;;;;;14.24;78.98;101767.13;7384141;19;20010;-64
2022/05/03 10:13:28;;;;;;;24.00;8.60;;;;;;;14.26;78.39;101762.53;7387271;19;20712;-64
2022/05/03 10:21:11;;;;;;;18.65;9.18;;;;;;;14.35;77.99;101761.59;7387495;19;20493;-65
2022/05/03 10:23:39;;;;;;;20.13;9.55;;;;;;;14.34;78.11;101758.13;7387840;19;20615;-65
2022/05/03 10:26:09;;;;;;;21.13;10.25;;;;;;;14.40;78.12;101762.00;7386651;19;20010;-64
2022/05/03 10:28:42;;;;;;;18.92;9.05;;;;;;;14.41;78.13;101761.88;7386275;19;20014;-63
2022/05/03 10:31:13;;;;;;;23.10;9.07;;;;;;;14.47;77.88;101760.41;7385562;19;20090;-64
2022/05/03 10:33:42;;;;;;;18.98;9.95;;;;;;;14.52;77.90;101766.09;7385595;19;20006;-64
2022/05/03 10:36:15;;;;;;;17.17;9.60;;;;;;;14.58;77.47;101764.63;7387438;19;20106;-64
2022/05/03 10:38:43;;;;;;;18.85;8.90;;;;;;;14.55;77.03;101763.94;7384706;19;20046;-64
2022/05/03 10:41:22;;;;;;;18.52;9.27;;;;;;;14.60;77.13;101760.00;7382848;19;20317;-66
2022/05/03 10:43:49;;;;;;;19.80;10.35;;;;;;;14.60;76.82;101762.63;7385005;19;20011;-64
2022/05/03 10:46:22;;;;;;;21.02;10.82;;;;;;;14.63;77.11;101760.50;7385380;19;20511;-65
2022/05/03 10:48:56;;;;;;;23.70;10.88;;;;;;;14.66;76.64;101764.66;7382735;19;20380;-64
2022/05/03 10:51:23;;;;;;;17.85;9.55;;;;;;;14.69;76.05;101765.19;7387039;19;20015;-65
2022/05/03 10:53:59;;;;;;;19.52;10.15;;;;;;;14.67;76.44;101759.22;7382063;19;20130;-64
2022/05/03 10:56:26;;;;;;;21.40;10.68;;;;;;;14.63;76.98;101759.69;7384734;19;20134;-64
2022/05/03 10:58:58;;;;;;;22.80;10.95;;;;;;;14.63;76.57;101763.16;7382415;19;20027;-64
2022/05/03 11:01:25;;;;;;;21.45;10.13;;;;;;;14.60;76.89;101752.88;7385302;19;20119;-64
2022/05/03 11:03:54;;;;;;;22.45;11.82;;;;;;;14.55;78.05;101756.00;7382132;19;20021;-63
2022/05/03 11:06:22;;;;;;;21.25;11.07;;;;;;;14.61;77.21;101754.53;7385017;19;20015;-63
2022/05/03 11:08:56;;;;;;;23.15;10.93;;;;;;;14.60;77.37;101755.53;7382686;19;20083;-65
2022/05/03 11:11:30;;;;;;;20.05;9.93;;;;;;;14.63;77.23;101754.41;7384553;19;20014;-63
2022/05/03 11:13:57;;;;;;;20.98;11.10;;;;;;;14.65;77.05;101749.75;7386390;19;20074;-64
2022/05/03 11:16:26;;;;;;;23.25;12.40;;;;;;;14.65;77.85;101745.28;7383723;19;20034;-64
2022/05/03 11:18:54;;;;;;;24.75;11.63;;;;;;;14.65;77.64;101742.66;7386598;19;20059;-65
2022/05/03 11:21:21;;;;;;;22.77;11.18;;;;;;;14.70;77.17;101742.16;7387666;19;20010;-66
2022/05/03 11:23:52;;;;;;;22.25;10.50;;;;;;;14.74;76.94;101735.56;7385533;19;20017;-66
2022/05/03 11:26:21;;;;;;;25.15;10.30;;;;;;;14.75;77.08;101739.88;7384372;19;20038;-64
2022/05/03 11:28:50;;;;;;;20.17;10.15;;;;;;;14.74;77.11;101738.22;7381253;19;20329;-63
2022/05/03 11:31:20;;;;;;;20.50;10.85;;;;;;;14.81;76.37;101737.44;7382963;19;20085;-64
2022/05/03 11:33:51;;;;;;;20.65;10.63;;;;;;;14.83;76.26;101730.16;7381323;19;20007;-63
2022/05/03 11:36:20;;;;;;;20.13;10.40;;;;;;;14.84;76.31;101729.16;7381133;19;20010;-63
2022/05/03 11:38:49;;;;;;;23.25;11.10;;;;;;;14.82;76.02;101735.63;7382901;19;20487;-63
2022/05/03 11:41:23;;;;;;;20.60;10.68;;;;;;;14.81;76.08;101736.59;7381576;19;20002;-64
2022/05/03 11:43:51;;;;;;;21.95;10.75;;;;;;;14.80;77.24;101729.63;7385030;19;20010;-65
2022/05/03 11:46:20;;;;;;;23.20;10.85;;;;;;;14.77;76.78;101725.50;7381570;19;20014;-64
2022/05/03 11:48:53;;;;;;;21.08;10.38;;;;;;;14.80;76.40;101727.81;7387183;19;20371;-63
2022/05/03 11:56:26;;;;;;;22.40;11.00;;;;;;;14.74;76.39;101724.97;7388845;19;20011;-63
2022/05/03 11:58:54;;;;;;;23.02;10.77;;;;;;;14.66;76.67;101727.59;7388445;19;20603;-66